| time (UTC) | temp C | wind direction | speed KPH | gust KPH | rain 1hr cm | rain 24hr cm | rain mn cm | humidity % | barometer mb |
| 20260831181525 | 25 | 118 | 0.0 | 3.2 | 0.00 | 0.00 | 0.00 | 41 | 1009.0 |
| 20260831180021 | 24 | 360 | 0.0 | 4.8 | 0.00 | 0.00 | 0.00 | 42 | 1009.1 |
| 20260831174521 | 23 | 61 | 0.0 | 4.8 | 0.00 | 0.00 | 0.00 | 44 | 1009.2 |
| 20260831173020 | 23 | 76 | 0.0 | 0.0 | 0.00 | 0.00 | 0.00 | 43 | 1009.3 |
| 20260831171520 | 23 | 360 | 0.0 | 1.6 | 0.00 | 0.00 | 0.00 | 44 | 1009.3 |
| 20260831170019 | 23 | 58 | 0.0 | 0.0 | 0.00 | 0.00 | 0.00 | 41 | 1009.3 |
| 20260831164523 | 23 | 59 | 0.0 | 0.0 | 0.00 | 0.00 | 0.00 | 42 | 1009.2 |
| 20260831163020 | 23 | 60 | 0.0 | 0.0 | 0.00 | 0.00 | 0.00 | 43 | 1009.1 |
| 20260831161514 | 23 | 58 | 0.0 | 6.4 | 0.00 | 0.00 | 0.00 | 41 | 1008.9 |
| 20260831160012 | 23 | 180 | 0.0 | 0.0 | 0.00 | 0.00 | 0.00 | 45 | 1008.9 |
| 20260831154511 | 23 | 204 | 0.0 | 0.0 | 0.00 | 0.00 | 0.00 | 43 | 1008.8 |
| 20260831153009 | 24 | 211 | 0.0 | 0.0 | 0.00 | 0.00 | 0.00 | 43 | 1008.6 |
| 20260831151507 | 23 | 211 | 0.0 | 0.0 | 0.00 | 0.00 | 0.00 | 46 | 1008.6 |
| 20260831150005 | 23 | 205 | 0.0 | 0.0 | 0.00 | 0.00 | 0.00 | 46 | 1008.7 |
| 20260831144501 | 22 | 207 | 0.0 | 0.0 | 0.00 | 0.00 | 0.00 | 49 | 1008.8 |
| 20260831143058 | 21 | 207 | 0.0 | 0.0 | 0.00 | 0.00 | 0.00 | 56 | 1008.7 |
| 20260831143003 | 21 | 207 | 0.0 | 0.0 | 0.00 | 0.00 | 0.00 | 55 | 1008.7 |
| 20260831141554 | 20 | 207 | 0.0 | 0.0 | 0.00 | 0.00 | 0.00 | 59 | 1008.7 |
| 20260831140053 | 18 | 207 | 0.0 | 0.0 | 0.00 | 0.00 | 0.00 | 63 | 1008.6 |
| 20260831134552 | 17 | 207 | 0.0 | 0.0 | 0.00 | 0.00 | 0.00 | 63 | 1008.3 |
| 20260831133044 | 17 | 207 | 0.0 | 0.0 | 0.00 | 0.00 | 0.00 | 63 | 1008.2 |
| 20260831131543 | 17 | 207 | 0.0 | 0.0 | 0.00 | 0.00 | 0.00 | 60 | 1008.0 |
| 20260831130038 | 16 | 207 | 0.0 | 0.0 | 0.00 | 0.00 | 0.00 | 61 | 1007.8 |
| 20260831124536 | 16 | 207 | 0.0 | 0.0 | 0.00 | 0.00 | 0.00 | 60 | 1007.5 |
| 20260831123036 | 17 | 207 | 0.0 | 0.0 | 0.00 | 0.00 | 0.00 | 58 | 1007.5 |
| 20260831121532 | 16 | 207 | 0.0 | 0.0 | 0.00 | 0.00 | 0.00 | 58 | 1007.2 |
| 20260831120039 | 16 | 207 | 0.0 | 0.0 | 0.00 | 0.00 | 0.00 | 61 | 1007.1 |
| 20260831114530 | 16 | 207 | 0.0 | 0.0 | 0.00 | 0.00 | 0.00 | 58 | 1007.0 |
| 20260831113028 | 17 | 208 | 0.0 | 1.6 | 0.00 | 0.00 | 0.00 | 56 | 1006.8 |
| 20260831111528 | 16 | 207 | 0.0 | 1.6 | 0.00 | 0.00 | 0.00 | 60 | 1006.6 |
| 20260831110035 | 16 | 261 | 0.0 | 0.0 | 0.00 | 0.00 | 0.00 | 60 | 1006.7 |
| 20260831104533 | 16 | 259 | 0.0 | 0.0 | 0.00 | 0.00 | 0.00 | 59 | 1006.8 |
| 20260831103124 | 17 | 321 | 0.0 | 0.0 | 0.00 | 0.00 | 0.00 | 58 | 1006.6 |
| 20260831101527 | 17 | 321 | 0.0 | 1.6 | 0.00 | 0.00 | 0.00 | 59 | 1006.7 |
| 20260831100022 | 17 | 252 | 0.0 | 0.0 | 0.00 | 0.00 | 0.00 | 55 | 1006.4 |
| 20260831094521 | 17 | 250 | 0.0 | 4.8 | 0.00 | 0.00 | 0.00 | 55 | 1006.2 |
| 20260831093021 | 17 | 244 | 0.0 | 1.6 | 0.00 | 0.00 | 0.00 | 53 | 1006.0 |
| 20260831091535 | 17 | 245 | 0.0 | 0.0 | 0.00 | 0.00 | 0.00 | 55 | 1005.7 |
| 20260831090117 | 17 | 245 | 0.0 | 0.0 | 0.00 | 0.00 | 0.00 | 60 | 1005.7 |
| 20260831084515 | 17 | 175 | 0.0 | 0.0 | 0.00 | 0.00 | 0.00 | 63 | 1005.7 |
| 20260831083013 | 18 | 176 | 0.0 | 0.0 | 0.00 | 0.00 | 0.00 | 62 | 1005.9 |
| 20260831081532 | 18 | 176 | 0.0 | 0.0 | 0.00 | 0.00 | 0.00 | 60 | 1006.0 |
| 20260831080018 | 18 | 360 | 0.0 | 0.0 | 0.00 | 0.00 | 0.00 | 59 | 1006.1 |
| 20260831074505 | 19 | 175 | 0.0 | 0.0 | 0.00 | 0.00 | 0.00 | 57 | 1006.2 |
| 20260831073005 | 20 | 176 | 0.0 | 0.0 | 0.00 | 0.00 | 0.00 | 54 | 1006.4 |
| 20260831071601 | 20 | 182 | 0.0 | 0.0 | 0.00 | 0.00 | 0.00 | 51 | 1006.7 |
| 20260831070100 | 20 | 182 | 0.0 | 1.6 | 0.00 | 0.00 | 0.00 | 49 | 1006.8 |
| 20260831064557 | 20 | 180 | 0.0 | 6.4 | 0.00 | 0.00 | 0.00 | 46 | 1006.6 |
| 20260831063056 | 20 | 171 | 0.0 | 0.0 | 0.00 | 0.00 | 0.00 | 51 | 1006.7 |
| 20260831061553 | 20 | 274 | 0.0 | 4.8 | 0.00 | 0.00 | 0.00 | 48 | 1006.5 |
| 20260831060054 | 20 | 274 | 0.0 | 11.3 | 0.00 | 0.00 | 0.00 | 48 | 1006.7 |
| 20260831054552 | 20 | 263 | 0.0 | 12.9 | 0.00 | 0.00 | 0.00 | 48 | 1006.9 |
| 20260831053050 | 20 | 360 | 0.0 | 8.0 | 0.00 | 0.00 | 0.00 | 47 | 1007.2 |
| 20260831051550 | 21 | 360 | 3.2 | 22.5 | 0.00 | 0.00 | 0.00 | 46 | 1007.3 |
| 20260831050048 | 22 | 219 | 8.0 | 25.7 | 0.00 | 0.00 | 0.00 | 43 | 1007.9 |
| 20260831044556 | 22 | 275 | 1.6 | 17.7 | 0.00 | 0.00 | 0.00 | 44 | 1007.8 |
| 20260831043047 | 20 | 171 | 0.0 | 3.2 | 0.00 | 0.00 | 0.00 | 51 | 1007.8 |
| 20260831041554 | 20 | 223 | 0.0 | 0.0 | 0.00 | 0.00 | 0.00 | 60 | 1007.3 |
| 20260831040041 | 20 | 223 | 0.0 | 0.0 | 0.00 | 0.00 | 0.00 | 60 | 1006.8 |
| 20260831034541 | 20 | 223 | 0.0 | 0.0 | 0.00 | 0.00 | 0.00 | 61 | 1006.7 |
| 20260831033043 | 20 | 215 | 0.0 | 0.0 | 0.00 | 0.00 | 0.00 | 63 | 1006.6 |
| 20260831031538 | 19 | 188 | 0.0 | 0.0 | 0.00 | 0.00 | 0.00 | 65 | 1006.5 |
| 20260831030037 | 19 | 186 | 0.0 | 0.0 | 0.00 | 0.00 | 0.00 | 64 | 1006.6 |
| 20260831024536 | 20 | 186 | 0.0 | 0.0 | 0.00 | 0.00 | 0.00 | 64 | 1006.3 |
| 20260831023035 | 20 | 186 | 0.0 | 0.0 | 0.00 | 0.00 | 0.00 | 63 | 1006.3 |
| 20260831021545 | 20 | 159 | 0.0 | 0.0 | 0.00 | 0.00 | 0.00 | 61 | 1005.9 |
| 20260831020034 | 20 | 160 | 0.0 | 0.0 | 0.00 | 0.00 | 0.00 | 59 | 1005.7 |
| 20260831014533 | 21 | 360 | 0.0 | 0.0 | 0.00 | 0.00 | 0.00 | 55 | 1005.7 |
| 20260831013033 | 21 | 360 | 0.0 | 0.0 | 0.00 | 0.00 | 0.00 | 54 | 1005.7 |
| 20260831011542 | 21 | 360 | 0.0 | 0.0 | 0.00 | 0.00 | 0.00 | 52 | 1005.4 |
| 20260831010039 | 21 | 360 | 0.0 | 0.0 | 0.00 | 0.00 | 0.00 | 51 | 1005.5 |
| 20260831004532 | 22 | 360 | 0.0 | 1.6 | 0.00 | 0.00 | 0.00 | 48 | 1005.3 |
| 20260831003034 | 23 | 182 | 0.0 | 6.4 | 0.00 | 0.00 | 0.00 | 44 | 1005.5 |
| 20260831001538 | 23 | 360 | 0.0 | 8.0 | 0.00 | 0.00 | 0.00 | 45 | 1005.4 |
| 20260831000030 | 23 | 360 | 1.6 | 9.7 | 0.00 | 0.00 | 0.00 | 44 | 1005.5 |
| 20260830234530 | 23 | 152 | 0.0 | 0.0 | 0.00 | 0.00 | 0.00 | 41 | 1005.2 |
| 20260830233030 | 23 | 360 | 0.0 | 8.0 | 0.00 | 0.00 | 0.00 | 42 | 1005.1 |
| 20260830231530 | 23 | 88 | 0.0 | 9.7 | 0.00 | 0.00 | 0.00 | 44 | 1004.9 |
| 20260830230028 | 23 | 100 | 0.0 | 1.6 | 0.00 | 0.00 | 0.00 | 44 | 1004.7 |
| 20260830224528 | 24 | 217 | 0.0 | 1.6 | 0.00 | 0.00 | 0.00 | 39 | 1004.7 |
| 20260830223027 | 24 | 188 | 3.2 | 22.5 | 0.00 | 0.00 | 0.00 | 37 | 1004.8 |
| 20260830221526 | 23 | 269 | 1.6 | 17.7 | 0.00 | 0.00 | 0.00 | 39 | 1005.2 |
| 20260830220033 | 23 | 268 | 0.0 | 16.1 | 0.00 | 0.00 | 0.00 | 42 | 1005.4 |
| 20260830214526 | 22 | 277 | 1.6 | 24.1 | 0.00 | 0.00 | 0.00 | 43 | 1005.6 |
| 20260830213027 | 21 | 298 | 1.6 | 22.5 | 0.00 | 0.00 | 0.00 | 47 | 1005.9 |
| 20260830211525 | 21 | 300 | 0.0 | 8.0 | 0.00 | 0.00 | 0.00 | 49 | 1006.2 |
| 20260830210022 | 20 | 269 | 0.0 | 11.3 | 0.00 | 0.00 | 0.00 | 56 | 1006.3 |
| 20260830204532 | 19 | 263 | 0.0 | 14.5 | 0.00 | 0.00 | 0.00 | 57 | 1006.4 |
| 20260830203020 | 21 | 360 | 4.8 | 32.2 | 0.00 | 0.00 | 0.00 | 53 | 1006.0 |
| 20260830201518 | 22 | 360 | 4.8 | 19.3 | 0.00 | 0.00 | 0.00 | 56 | 1005.2 |
| 20260830200015 | 22 | 284 | 0.0 | 8.0 | 0.00 | 0.00 | 0.00 | 57 | 1003.9 |
| 20260830194515 | 25 | 266 | 1.6 | 17.7 | 0.00 | 0.00 | 0.00 | 46 | 1003.8 |
| 20260830193015 | 26 | 264 | 0.0 | 6.4 | 0.00 | 0.00 | 0.00 | 37 | 1003.3 |
| 20260830191513 | 26 | 90 | 0.0 | 9.7 | 0.00 | 0.00 | 0.00 | 39 | 1002.7 |
| 20260830190013 | 26 | 360 | 3.2 | 8.0 | 0.00 | 0.00 | 0.00 | 39 | 1002.5 |
| 20260830184512 | 27 | 360 | 0.0 | 4.8 | 0.00 | 0.00 | 0.00 | 39 | 1002.8 |
| 20260830183011 | 27 | 107 | 1.6 | 14.5 | 0.00 | 0.00 | 0.00 | 39 | 1002.9 |